createdAt,value
2018-01-10T00:02:17.066Z,26.80
2018-01-10T00:04:44.604Z,23.93
2018-01-10T00:07:12.903Z,23.20
2018-01-10T00:09:40.462Z,25.20
2018-01-10T00:12:07.965Z,25.07
2018-01-10T00:14:35.528Z,24.33
2018-01-10T00:17:03.661Z,23.27
2018-01-10T00:19:31.221Z,25.63
2018-01-10T00:21:58.764Z,25.07
2018-01-10T00:24:26.361Z,23.87
2018-01-10T00:26:53.865Z,24.60
2018-01-10T00:29:22.358Z,27.27
2018-01-10T00:31:50.608Z,23.90
2018-01-10T00:34:18.133Z,24.43
2018-01-10T00:36:46.423Z,24.37
2018-01-10T00:39:14.705Z,28.00
2018-01-10T00:41:42.277Z,24.90
2018-01-10T00:44:10.573Z,25.40
2018-01-10T00:46:38.825Z,27.10
2018-01-10T00:49:06.472Z,26.50
2018-01-10T00:51:33.991Z,24.27
2018-01-10T00:54:02.267Z,26.40
2018-01-10T00:56:30.501Z,24.77
2018-01-10T00:58:58.026Z,26.90
2018-01-10T01:01:25.672Z,26.97
2018-01-10T01:03:53.203Z,26.57
2018-01-10T01:06:20.768Z,27.27
2018-01-10T01:08:49.047Z,26.13
2018-01-10T01:11:17.296Z,25.60
2018-01-10T01:13:44.877Z,28.77
2018-01-10T01:16:12.407Z,28.73
2018-01-10T01:18:40.193Z,29.60
2018-01-10T01:21:07.774Z,26.60
2018-01-10T01:23:35.307Z,26.13
2018-01-10T01:26:02.862Z,29.90
2018-01-10T01:28:31.160Z,28.97
2018-01-10T01:30:59.416Z,29.37
2018-01-10T01:33:26.964Z,28.67
2018-01-10T01:35:54.508Z,29.83
2018-01-10T01:38:22.069Z,28.50
2018-01-10T01:40:49.561Z,31.93
2018-01-10T01:43:17.108Z,29.80
2018-01-10T01:45:45.380Z,26.53
2018-01-10T01:48:12.971Z,29.30
2018-01-10T01:50:40.493Z,28.30
2018-01-10T01:53:08.327Z,29.03
2018-01-10T01:55:35.845Z,30.10
2018-01-10T01:58:03.421Z,29.07
2018-01-10T02:00:30.985Z,28.90
2018-01-10T02:02:58.735Z,32.30
2018-01-10T02:05:26.623Z,29.20
2018-01-10T02:07:54.132Z,32.60
2018-01-10T02:10:21.633Z,27.60
2018-01-10T02:12:49.218Z,29.63
2018-01-10T02:15:16.756Z,31.20
2018-01-10T02:17:44.257Z,29.90
2018-01-10T02:20:11.761Z,28.40
2018-01-10T02:22:39.355Z,29.60
2018-01-10T02:25:08.350Z,32.00
2018-01-10T02:27:35.945Z,31.10
2018-01-10T02:30:04.205Z,28.50
2018-01-10T02:32:31.721Z,30.20
2018-01-10T02:34:59.989Z,32.20
2018-01-10T02:37:28.278Z,29.63
2018-01-10T02:39:56.600Z,29.90
2018-01-10T02:42:35.938Z,29.70
2018-01-10T02:45:03.517Z,32.63
2018-01-10T02:47:31.073Z,33.30
2018-01-10T02:49:59.329Z,30.00
2018-01-10T02:52:26.832Z,32.00
2018-01-10T02:54:55.130Z,33.13
2018-01-10T02:57:23.397Z,33.57
2018-01-10T02:59:51.851Z,32.17
2018-01-10T03:02:19.452Z,33.67
2018-01-10T03:04:47.038Z,31.73
2018-01-10T03:07:16.117Z,33.13
2018-01-10T03:09:43.616Z,35.13
2018-01-10T03:12:11.899Z,33.13
2018-01-10T03:14:40.172Z,34.87
2018-01-10T03:17:08.581Z,32.03
2018-01-10T03:19:36.857Z,36.77
2018-01-10T03:22:04.443Z,33.87
2018-01-10T03:24:32.726Z,34.40
2018-01-10T03:27:00.235Z,34.73
2018-01-10T03:29:27.813Z,34.90
2018-01-10T03:31:55.352Z,33.47
2018-01-10T03:34:22.865Z,31.27
2018-01-10T03:36:50.393Z,34.77
2018-01-10T03:39:18.660Z,34.40
2018-01-10T03:41:46.186Z,37.43
2018-01-10T03:44:13.690Z,35.57
2018-01-10T03:46:42.008Z,34.60
2018-01-10T03:49:10.289Z,31.90
2018-01-10T03:51:38.735Z,37.83
2018-01-10T03:54:06.359Z,37.50
2018-01-10T03:56:34.653Z,35.07
2018-01-10T03:59:02.172Z,34.47
2018-01-10T04:01:29.694Z,39.73
2018-01-10T04:03:57.271Z,35.70
2018-01-10T04:06:24.791Z,38.23
2018-01-10T04:08:52.320Z,35.90
2018-01-10T04:11:19.827Z,38.00
2018-01-10T04:13:47.380Z,37.13
2018-01-10T04:16:15.609Z,39.77
2018-01-10T04:18:43.210Z,38.87
2018-01-10T04:21:11.472Z,41.50
2018-01-10T04:23:39.075Z,33.43
2018-01-10T04:26:07.336Z,40.07
2018-01-10T04:28:35.724Z,38.53
2018-01-10T04:31:03.317Z,35.77
2018-01-10T04:33:31.823Z,38.87
2018-01-10T04:35:59.378Z,39.53
2018-01-10T04:38:26.889Z,36.47
2018-01-10T04:40:54.559Z,37.40
2018-01-10T04:43:22.210Z,38.87
2018-01-10T04:45:49.774Z,35.53
2018-01-10T04:48:17.302Z,38.50
2018-01-10T04:50:44.811Z,35.20
2018-01-10T04:53:13.069Z,38.70
2018-01-10T04:55:41.289Z,34.33
2018-01-10T04:58:09.522Z,36.77
2018-01-10T05:00:37.089Z,38.23
2018-01-10T05:03:04.577Z,36.07
2018-01-10T05:05:32.088Z,34.90
2018-01-10T05:07:59.657Z,37.27
2018-01-10T05:10:27.992Z,36.43
2018-01-10T05:12:55.488Z,34.40
2018-01-10T05:15:23.013Z,32.07
2018-01-10T05:17:51.023Z,38.13
2018-01-10T05:20:18.666Z,35.73
2018-01-10T05:22:46.149Z,36.67
2018-01-10T05:25:13.659Z,31.50
2018-01-10T05:27:41.348Z,37.87
2018-01-10T05:30:09.619Z,35.03
2018-01-10T05:32:37.897Z,35.90
2018-01-10T05:35:05.457Z,37.00
2018-01-10T05:37:32.972Z,36.23
2018-01-10T05:40:00.516Z,35.67
2018-01-10T05:42:28.229Z,38.77
2018-01-10T05:44:56.504Z,38.30
2018-01-10T05:47:24.974Z,33.13
2018-01-10T05:49:52.497Z,36.10
2018-01-10T05:52:20.025Z,34.73
2018-01-10T05:54:48.292Z,33.73
2018-01-10T05:57:16.576Z,30.70
2018-01-10T05:59:44.094Z,35.17
2018-01-10T06:02:11.680Z,28.50
2018-01-10T06:04:39.193Z,35.20
2018-01-10T06:07:06.690Z,34.93
2018-01-10T06:09:34.959Z,29.90
2018-01-10T06:12:02.445Z,32.40
2018-01-10T06:14:30.728Z,32.37
2018-01-10T06:16:58.231Z,34.57
2018-01-10T06:19:25.748Z,30.77
2018-01-10T06:21:53.325Z,33.27
2018-01-10T06:24:20.893Z,32.20
2018-01-10T06:26:48.498Z,32.40
2018-01-10T06:29:16.764Z,31.80
2018-01-10T06:31:44.260Z,33.47
2018-01-10T06:34:11.783Z,31.43
2018-01-10T06:36:39.270Z,30.40
2018-01-10T06:39:06.873Z,30.37
2018-01-10T06:41:34.416Z,31.20
2018-01-10T06:44:02.646Z,31.13
2018-01-10T06:46:30.215Z,29.07
2018-01-10T06:48:57.797Z,31.97
2018-01-10T06:51:25.318Z,31.80
2018-01-10T06:53:53.632Z,32.23
2018-01-10T06:56:21.942Z,28.37
2018-01-10T06:58:49.458Z,33.33
2018-01-10T07:01:16.970Z,30.57
2018-01-10T07:03:44.560Z,30.37
2018-01-10T07:06:12.260Z,32.17
2018-01-10T07:08:39.781Z,32.73
2018-01-10T07:11:08.391Z,30.77
2018-01-10T07:13:35.928Z,29.77
2018-01-10T07:16:04.146Z,25.80
2018-01-10T07:18:31.716Z,29.70
2018-01-10T07:20:59.287Z,31.00
2018-01-10T07:23:26.829Z,30.37
2018-01-10T07:25:55.241Z,25.13
2018-01-10T07:28:22.791Z,31.33
2018-01-10T07:30:50.399Z,31.87
2018-01-10T07:33:17.977Z,31.50
2018-01-10T07:35:45.518Z,31.10
2018-01-10T07:38:13.817Z,32.10
2018-01-10T07:40:41.352Z,30.60
2018-01-10T07:43:08.984Z,32.40
2018-01-10T07:45:36.505Z,30.53
2018-01-10T07:48:04.047Z,28.93
2018-01-10T07:50:31.560Z,32.53
2018-01-10T07:52:59.081Z,28.23
2018-01-10T07:55:26.691Z,28.27
2018-01-10T07:57:54.387Z,24.13
2018-01-10T08:00:22.688Z,25.50
2018-01-10T08:02:50.217Z,26.73
2018-01-10T08:05:17.725Z,27.07
2018-01-10T08:07:45.245Z,27.80
2018-01-10T08:10:12.740Z,29.10
2018-01-10T08:12:41.060Z,31.50
2018-01-10T08:15:08.569Z,30.90
2018-01-10T08:17:36.083Z,31.40
2018-01-10T08:20:04.391Z,27.27
2018-01-10T08:22:31.904Z,29.87
2018-01-10T08:24:59.580Z,28.37
2018-01-10T08:27:27.178Z,29.03
2018-01-10T08:29:56.343Z,30.70
2018-01-10T08:32:26.959Z,30.90
2018-01-10T08:34:54.479Z,31.53
2018-01-10T08:37:22.019Z,36.30
2018-01-10T08:39:49.508Z,32.43
2018-01-10T08:42:17.188Z,31.73
2018-01-10T08:44:45.025Z,29.10
2018-01-10T08:47:12.579Z,29.77
2018-01-10T08:49:40.979Z,30.37
2018-01-10T08:52:08.546Z,29.80
2018-01-10T08:54:36.074Z,29.70
2018-01-10T08:57:03.606Z,30.57
2018-01-10T08:59:31.203Z,27.27
2018-01-10T09:01:58.853Z,28.17
2018-01-10T09:04:26.435Z,27.47
2018-01-10T09:06:54.002Z,27.50
2018-01-10T09:09:21.541Z,28.40
2018-01-10T09:11:49.133Z,27.80
2018-01-10T09:14:16.712Z,28.33
2018-01-10T09:16:44.218Z,25.83
2018-01-10T09:19:11.775Z,27.17
2018-01-10T09:21:39.292Z,26.80
2018-01-10T09:24:07.745Z,28.00
2018-01-10T09:26:35.457Z,26.57
2018-01-10T09:29:03.971Z,27.20
2018-01-10T09:31:31.506Z,28.47
2018-01-10T09:33:59.048Z,25.67
2018-01-10T09:36:26.599Z,25.80
2018-01-10T09:38:54.124Z,27.20
2018-01-10T09:41:21.753Z,23.57
2018-01-10T09:43:49.481Z,26.87
2018-01-10T09:46:17.781Z,27.67
2018-01-10T09:48:46.112Z,28.87
2018-01-10T09:51:13.589Z,29.70
2018-01-10T09:53:41.914Z,28.90
2018-01-10T09:56:09.493Z,28.40
2018-01-10T09:58:37.819Z,28.97
2018-01-10T10:01:05.456Z,28.63
2018-01-10T10:03:33.838Z,27.10
2018-01-10T10:06:02.217Z,28.33
2018-01-10T10:08:29.850Z,27.90
2018-01-10T10:10:57.385Z,28.97
2018-01-10T10:13:25.681Z,29.20
2018-01-10T10:15:53.189Z,28.13
2018-01-10T10:18:20.819Z,28.67
2018-01-10T10:20:49.115Z,28.90
2018-01-10T10:23:17.519Z,27.37
2018-01-10T10:25:45.059Z,27.97
2018-01-10T10:28:13.485Z,29.50
2018-01-10T10:30:41.006Z,28.73
2018-01-10T10:33:08.631Z,30.13
2018-01-10T10:35:36.194Z,29.93
2018-01-10T10:38:03.706Z,28.13
2018-01-10T10:40:31.300Z,29.43
2018-01-10T10:42:59.589Z,28.97
2018-01-10T10:45:27.946Z,26.70
2018-01-10T10:47:55.652Z,24.73
2018-01-10T10:50:23.450Z,29.97
2018-01-10T10:52:51.097Z,28.70
2018-01-10T10:55:18.634Z,27.87
2018-01-10T10:57:46.144Z,26.73
2018-01-10T11:00:13.742Z,27.80
2018-01-10T11:02:41.330Z,27.73
2018-01-10T11:05:08.863Z,28.50
2018-01-10T11:07:37.384Z,28.63
2018-01-10T11:10:05.775Z,26.07
2018-01-10T11:12:34.047Z,27.73
2018-01-10T11:15:02.413Z,26.67
2018-01-10T11:17:29.932Z,27.13
2018-01-10T11:19:57.465Z,26.80
2018-01-10T11:22:24.965Z,26.27
2018-01-10T11:24:53.400Z,26.47
2018-01-10T11:27:20.923Z,27.17
2018-01-10T11:29:49.258Z,26.93
2018-01-10T11:32:16.773Z,26.23
2018-01-10T11:34:44.452Z,28.70
2018-01-10T11:37:11.963Z,27.50
2018-01-10T11:39:39.604Z,29.87
2018-01-10T11:42:07.942Z,28.60
2018-01-10T11:44:35.470Z,29.10
2018-01-10T11:47:03.842Z,28.67
2018-01-10T11:49:31.389Z,27.70
2018-01-10T11:51:59.605Z,29.00
2018-01-10T11:54:27.150Z,27.47
2018-01-10T11:56:54.649Z,31.20
2018-01-10T11:59:22.944Z,29.77
2018-01-10T12:01:51.215Z,30.20
2018-01-10T12:04:18.733Z,31.47
2018-01-10T12:06:46.613Z,32.10
2018-01-10T12:09:14.143Z,33.30
2018-01-10T12:11:41.677Z,33.53
2018-01-10T12:14:09.430Z,31.80
2018-01-10T12:16:36.937Z,31.20
2018-01-10T12:19:04.496Z,33.50
2018-01-10T12:21:32.123Z,33.50
2018-01-10T12:24:00.399Z,32.27
2018-01-10T12:26:28.150Z,32.70
2018-01-10T12:28:55.752Z,29.47
2018-01-10T12:31:24.827Z,31.17
2018-01-10T12:33:52.368Z,32.07
2018-01-10T12:36:20.896Z,31.17
2018-01-10T12:38:48.424Z,29.97
2018-01-10T12:41:15.938Z,30.27
2018-01-10T12:43:43.457Z,30.33
2018-01-10T12:46:11.020Z,31.80
2018-01-10T12:48:39.328Z,31.67
2018-01-10T12:51:07.048Z,27.70
2018-01-10T12:53:34.680Z,29.33
2018-01-10T12:56:02.244Z,29.13
2018-01-10T12:58:29.821Z,29.27
2018-01-10T13:00:57.387Z,32.97
2018-01-10T13:03:24.894Z,32.77
2018-01-10T13:05:52.525Z,34.20
2018-01-10T13:08:20.296Z,32.00
2018-01-10T13:10:48.055Z,35.50
2018-01-10T13:13:16.373Z,34.33
2018-01-10T13:15:43.981Z,37.77
2018-01-10T13:18:11.608Z,37.47
2018-01-10T13:20:39.128Z,38.80
2018-01-10T13:23:06.765Z,37.43
2018-01-10T13:25:34.286Z,40.27
2018-01-10T13:28:01.808Z,43.73
2018-01-10T13:30:29.298Z,46.27
2018-01-10T13:32:56.892Z,44.00
2018-01-10T13:35:24.586Z,46.63
2018-01-10T13:37:53.525Z,45.03
2018-01-10T13:40:21.019Z,43.97
2018-01-10T13:42:48.534Z,45.50
2018-01-10T13:45:16.846Z,46.93
2018-01-10T13:47:44.378Z,46.40
2018-01-10T13:50:12.713Z,45.63
2018-01-10T13:52:40.368Z,47.13
2018-01-10T13:55:08.668Z,45.17
2018-01-10T13:57:36.234Z,45.63
2018-01-10T14:00:03.737Z,45.70
2018-01-10T14:02:31.284Z,46.13
2018-01-10T14:04:58.805Z,41.77
2018-01-10T14:07:26.350Z,43.77
2018-01-10T14:09:53.939Z,42.43
2018-01-10T14:12:21.505Z,43.40
2018-01-10T14:14:49.117Z,45.13
2018-01-10T14:17:18.148Z,44.90
2018-01-10T14:19:45.669Z,40.10
2018-01-10T14:22:14.112Z,41.80
2018-01-10T14:24:41.627Z,40.30
2018-01-10T14:27:09.136Z,42.37
2018-01-10T14:29:37.679Z,40.67
2018-01-10T14:32:05.308Z,38.60
2018-01-10T14:34:33.732Z,39.77
2018-01-10T14:37:03.096Z,35.50
2018-01-10T14:39:30.679Z,34.53
2018-01-10T14:41:58.961Z,35.80
2018-01-10T14:44:27.268Z,35.90
2018-01-10T14:46:55.000Z,35.23
2018-01-10T14:49:23.255Z,34.33
2018-01-10T14:51:50.811Z,35.07
2018-01-10T14:54:18.325Z,34.30
2018-01-10T14:56:46.053Z,36.23
2018-01-10T14:59:13.590Z,35.10
2018-01-10T15:01:41.874Z,35.73
2018-01-10T15:04:10.157Z,34.87
2018-01-10T15:06:37.678Z,32.73
2018-01-10T15:09:05.197Z,33.40
2018-01-10T15:11:32.699Z,33.73
2018-01-10T15:14:01.028Z,32.40
2018-01-10T15:16:28.581Z,30.13
2018-01-10T15:18:56.204Z,32.93
2018-01-10T15:21:25.256Z,33.63
2018-01-10T15:23:52.803Z,34.90
2018-01-10T15:26:21.126Z,30.93
2018-01-10T15:28:48.683Z,33.07
2018-01-10T15:31:16.210Z,30.30
2018-01-10T15:33:43.718Z,33.47
2018-01-10T15:36:11.504Z,33.13
2018-01-10T15:38:39.108Z,32.53
2018-01-10T15:41:06.640Z,36.53
2018-01-10T15:43:34.167Z,32.63
2018-01-10T15:46:01.823Z,32.10
2018-01-10T15:48:29.342Z,33.17
2018-01-10T15:50:57.689Z,34.57
2018-01-10T15:53:25.626Z,34.10
2018-01-10T15:55:53.238Z,32.50
2018-01-10T15:58:20.749Z,34.53
2018-01-10T16:00:49.265Z,34.07
2018-01-10T16:03:16.786Z,27.67
2018-01-10T16:05:44.318Z,31.63
2018-01-10T16:08:11.854Z,31.77
2018-01-10T16:10:40.173Z,31.90
2018-01-10T16:13:07.669Z,32.33
2018-01-10T16:15:35.239Z,34.37
2018-01-10T16:18:02.768Z,33.50
2018-01-10T16:20:31.048Z,30.73
2018-01-10T16:22:59.554Z,27.13
2018-01-10T16:25:27.889Z,27.80
2018-01-10T16:27:55.564Z,30.07
2018-01-10T16:30:23.123Z,30.90
2018-01-10T16:32:50.779Z,28.00
2018-01-10T16:35:18.359Z,29.30
2018-01-10T16:37:45.943Z,26.77
2018-01-10T16:40:13.559Z,26.03
2018-01-10T16:42:41.860Z,25.20
2018-01-10T16:45:09.454Z,26.30
2018-01-10T16:47:37.001Z,26.03
2018-01-10T16:50:04.549Z,27.80
2018-01-10T16:52:32.129Z,26.67
2018-01-10T16:54:59.653Z,28.63
2018-01-10T16:57:27.181Z,27.03
2018-01-10T16:59:55.455Z,25.80
2018-01-10T17:02:23.015Z,25.67
2018-01-10T17:04:50.644Z,28.40
2018-01-10T17:07:18.237Z,37.07
2018-01-10T17:09:45.942Z,27.83
2018-01-10T17:12:14.388Z,29.77
2018-01-10T17:14:41.916Z,28.17
2018-01-10T17:17:11.073Z,27.60
2018-01-10T17:19:38.797Z,31.30
2018-01-10T17:22:06.568Z,29.73
2018-01-10T17:24:34.146Z,29.60
2018-01-10T17:27:01.691Z,29.77
2018-01-10T17:29:29.194Z,28.60
2018-01-10T17:31:57.498Z,29.83
2018-01-10T17:34:25.193Z,27.83
2018-01-10T17:36:52.786Z,30.20
2018-01-10T17:39:20.284Z,31.83
2018-01-10T17:41:47.817Z,30.67
2018-01-10T17:44:16.127Z,31.73
2018-01-10T17:46:43.705Z,33.97
2018-01-10T17:49:11.241Z,32.00
2018-01-10T17:51:38.825Z,31.90
2018-01-10T17:54:06.358Z,31.43
2018-01-10T17:56:34.728Z,30.70
2018-01-10T17:59:02.308Z,30.97
2018-01-10T18:01:30.065Z,30.83
2018-01-10T18:03:57.590Z,29.80
2018-01-10T18:06:25.179Z,29.43
2018-01-10T18:08:52.868Z,28.50
2018-01-10T18:11:20.734Z,26.40
2018-01-10T18:13:48.292Z,28.37
2018-01-10T18:16:15.827Z,29.90
2018-01-10T18:18:43.376Z,29.23
2018-01-10T18:21:11.033Z,28.67
2018-01-10T18:23:38.555Z,29.10
2018-01-10T18:26:06.151Z,29.17
2018-01-10T18:28:33.674Z,29.40
2018-01-10T18:31:02.026Z,28.10
2018-01-10T18:33:29.554Z,26.37
2018-01-10T18:35:57.962Z,23.57
2018-01-10T18:38:25.585Z,23.00
2018-01-10T18:40:54.034Z,23.83
2018-01-10T18:43:21.596Z,24.20
2018-01-10T18:45:49.163Z,24.93
2018-01-10T18:48:16.714Z,26.70
2018-01-10T18:50:45.129Z,28.93
2018-01-10T18:53:12.760Z,29.27
2018-01-10T18:55:41.818Z,31.33
2018-01-10T18:58:09.351Z,33.77
2018-01-10T19:00:37.469Z,32.17
2018-01-10T19:03:05.027Z,30.53
2018-01-10T19:05:33.348Z,32.07
2018-01-10T19:08:00.891Z,29.83
2018-01-10T19:10:29.273Z,29.40
2018-01-10T19:12:56.993Z,26.67
2018-01-10T19:15:24.557Z,25.93
2018-01-10T19:17:52.113Z,26.90
2018-01-10T19:20:19.714Z,27.23
2018-01-10T19:22:47.348Z,31.37
2018-01-10T19:25:15.678Z,32.07
2018-01-10T19:27:43.386Z,33.80
2018-01-10T19:30:11.972Z,35.80
2018-01-10T19:32:40.452Z,34.00
2018-01-10T19:35:08.773Z,33.60
2018-01-10T19:37:37.085Z,32.33
2018-01-10T19:40:04.876Z,34.17
2018-01-10T19:42:32.472Z,34.37
2018-01-10T19:45:00.171Z,34.40
2018-01-10T19:47:27.958Z,30.57
2018-01-10T19:49:56.382Z,31.80
2018-01-10T19:52:24.005Z,32.93
2018-01-10T19:54:51.736Z,28.57
2018-01-10T19:57:19.290Z,30.30
2018-01-10T19:59:46.902Z,34.73
2018-01-10T20:02:14.555Z,31.20
2018-01-10T20:04:42.096Z,31.17
2018-01-10T20:07:10.536Z,32.33
2018-01-10T20:09:38.198Z,29.33
2018-01-10T20:12:05.852Z,30.97
2018-01-10T20:14:33.520Z,29.90
2018-01-10T20:17:01.261Z,30.13
2018-01-10T20:19:29.646Z,30.50
2018-01-10T20:21:57.218Z,30.47
2018-01-10T20:24:25.466Z,29.53
2018-01-10T20:26:53.333Z,29.30
2018-01-10T20:29:20.862Z,30.23
2018-01-10T20:31:48.493Z,31.93
2018-01-10T20:34:16.122Z,31.00
2018-01-10T20:36:43.787Z,31.00
2018-01-10T20:39:12.355Z,22.90
2018-01-10T20:41:40.100Z,30.00
2018-01-10T20:44:07.757Z,15.30
2018-01-10T20:46:36.094Z,23.80
2018-01-10T20:49:03.655Z,26.87
2018-01-10T20:51:31.230Z,27.90
2018-01-10T20:53:58.846Z,29.00
2018-01-10T20:56:27.195Z,27.90
2018-01-10T20:58:54.896Z,31.77
2018-01-10T21:01:23.272Z,33.97
2018-01-10T21:03:51.597Z,32.90
2018-01-10T21:06:19.895Z,33.57
2018-01-10T21:08:47.447Z,35.43
2018-01-10T21:11:15.746Z,35.07
2018-01-10T21:13:44.138Z,34.87
2018-01-10T21:16:12.627Z,34.47
2018-01-10T21:18:40.967Z,33.17
2018-01-10T21:21:08.491Z,31.93
2018-01-10T21:23:36.883Z,31.60
2018-01-10T21:26:05.206Z,29.40
2018-01-10T21:28:32.767Z,30.67
2018-01-10T21:31:00.343Z,32.33
2018-01-10T21:33:28.011Z,30.63
2018-01-10T21:35:56.818Z,32.17
2018-01-10T21:38:24.590Z,32.23
2018-01-10T21:40:52.820Z,32.60
2018-01-10T21:43:21.301Z,32.23
2018-01-10T21:45:49.657Z,33.37
2018-01-10T21:48:17.207Z,32.83
2018-01-10T21:50:44.892Z,34.60
2018-01-10T21:53:12.375Z,33.83
2018-01-10T21:55:39.968Z,33.60
2018-01-10T21:58:07.500Z,34.00
2018-01-10T22:00:35.958Z,31.60
2018-01-10T22:03:03.484Z,36.47
2018-01-10T22:05:31.050Z,33.23
2018-01-10T22:07:58.621Z,32.33
2018-01-10T22:10:26.641Z,36.73
2018-01-10T22:12:54.269Z,33.03
2018-01-10T22:15:21.852Z,31.70
2018-01-10T22:17:49.387Z,33.93
2018-01-10T22:20:17.738Z,37.30
2018-01-10T22:22:45.295Z,34.80
2018-01-10T22:25:12.988Z,35.83
2018-01-10T22:27:40.605Z,35.47
2018-01-10T22:30:09.059Z,35.30
2018-01-10T22:32:36.581Z,36.27
2018-01-10T22:35:04.179Z,35.47
2018-01-10T22:37:31.694Z,37.30
2018-01-10T22:40:00.009Z,37.43
2018-01-10T22:42:27.751Z,36.70
2018-01-10T22:44:55.293Z,36.40
2018-01-10T22:47:22.916Z,33.53
2018-01-10T22:49:50.479Z,35.17
2018-01-10T22:52:18.741Z,34.57
2018-01-10T22:54:46.339Z,36.63
2018-01-10T22:57:14.632Z,32.97
2018-01-10T22:59:42.169Z,37.60
2018-01-10T23:02:09.675Z,37.13
2018-01-10T23:04:37.965Z,37.90
2018-01-10T23:07:06.270Z,33.03
2018-01-10T23:09:33.797Z,36.10
2018-01-10T23:12:01.308Z,36.40
2018-01-10T23:14:29.050Z,35.73
2018-01-10T23:16:56.561Z,37.87
2018-01-10T23:19:24.201Z,33.90
2018-01-10T23:21:51.879Z,37.47
2018-01-10T23:24:20.196Z,36.27
2018-01-10T23:26:47.703Z,38.07
2018-01-10T23:29:15.249Z,34.50
2018-01-10T23:31:42.804Z,36.23
2018-01-10T23:34:10.380Z,40.13
2018-01-10T23:36:37.884Z,37.50
2018-01-10T23:39:05.585Z,35.87
2018-01-10T23:41:33.113Z,34.77
2018-01-10T23:44:00.646Z,33.00
2018-01-10T23:46:29.605Z,34.03
2018-01-10T23:48:57.148Z,35.70
2018-01-10T23:51:24.745Z,33.80
2018-01-10T23:53:52.301Z,34.00
2018-01-10T23:56:19.877Z,36.27
2018-01-10T23:58:47.421Z,34.83
